Time;durP1;ratioP1;P1;durP2;ratioP2;P2;SDS_P1;SDS_P2;PMS_P1;PMS_P2;Temp;Humidity;BMP_temperature;BMP_pressure;BME280_temperature;BME280_humidity;BME280_pressure;Samples;Min_cycle;Max_cycle;Signal;HPM_P1;HPM_P2
2022/11/18 00:01:06;;;;;;;22.33;7.43;;;6.40;99.90;;;;;;5078963;28;20780;-64
2022/11/18 00:03:32;;;;;;;46.45;11.95;;;6.40;99.90;;;;;;5082654;28;20704;-64
2022/11/18 00:05:58;;;;;;;;;;;6.40;99.90;;;;;;5079043;28;20064;-63
2022/11/18 00:08:24;;;;;;;94.28;25.70;;;6.40;99.90;;;;;;5089998;28;20704;-65
2022/11/18 00:10:51;;;;;;;52.40;14.27;;;6.40;99.90;;;;;;5079501;28;20063;-64
2022/11/18 00:16:07;;;;;;;28.73;7.15;;;6.50;99.90;;;;;;5078899;28;20071;-64
2022/11/18 00:18:34;;;;;;;20.95;4.13;;;6.40;99.90;;;;;;5068968;28;20044;-63
2022/11/18 00:21:03;;;;;;;6.15;2.42;;;6.40;99.90;;;;;;5065931;28;20090;-64
2022/11/18 00:23:29;;;;;;;4.30;1.98;;;6.50;99.90;;;;;;5065708;28;20047;-64
2022/11/18 00:25:55;;;;;;;;;;;6.50;99.90;;;;;;5065996;28;20548;-64
2022/11/18 00:28:20;;;;;;;2.83;1.40;;;6.50;99.90;;;;;;5066203;28;19924;-64
2022/11/18 00:30:46;;;;;;;4.03;1.00;;;6.50;99.90;;;;;;5064233;28;20040;-64
2022/11/18 00:33:12;;;;;;;7.28;2.30;;;6.50;99.90;;;;;;5065170;28;20031;-64
2022/11/18 00:35:37;;;;;;;;;;;6.50;99.90;;;;;;5068993;28;20040;-64
2022/11/18 00:38:03;;;;;;;1.50;0.60;;;6.50;99.90;;;;;;5077212;28;20015;-64
2022/11/18 00:40:29;;;;;;;1.23;0.80;;;6.60;99.90;;;;;;5071571;28;20062;-65
2022/11/18 00:42:55;;;;;;;;;;;6.50;99.90;;;;;;5067826;28;20062;-64
2022/11/18 00:45:22;;;;;;;4.72;2.08;;;6.50;99.90;;;;;;5066824;28;19924;-65
2022/11/18 00:47:47;;;;;;;4.50;1.65;;;6.50;99.90;;;;;;5065013;28;20526;-64
2022/11/18 00:50:13;;;;;;;;;;;6.50;99.90;;;;;;5067259;28;20036;-63
2022/11/18 00:52:39;;;;;;;11.68;3.97;;;6.50;99.90;;;;;;5067884;28;20459;-63
2022/11/18 00:55:04;;;;;;;;;;;6.50;99.90;;;;;;5066799;28;20036;-63
2022/11/18 00:57:30;;;;;;;22.27;9.57;;;6.50;99.90;;;;;;5059379;28;19916;-64
2022/11/18 00:59:56;;;;;;;;;;;6.50;99.90;;;;;;5065263;28;20059;-64
2022/11/18 01:02:21;;;;;;;46.35;17.20;;;6.50;99.90;;;;;;5065587;28;20296;-64
2022/11/18 01:04:47;;;;;;;;;;;6.50;99.90;;;;;;5065419;28;20599;-64
2022/11/18 01:07:12;;;;;;;51.72;20.67;;;6.50;99.90;;;;;;5063873;28;19924;-64
2022/11/18 01:09:38;;;;;;;30.98;13.00;;;6.60;99.90;;;;;;5064303;28;20121;-64
2022/11/18 01:14:48;;;;;;;53.33;24.70;;;6.50;99.90;;;;;;5065234;28;19916;-64
2022/11/18 01:17:13;;;;;;;;;;;6.50;99.90;;;;;;5065977;28;20102;-64
2022/11/18 01:19:39;;;;;;;20.67;7.30;;;6.50;99.90;;;;;;5069368;28;19952;-64
2022/11/18 01:22:05;;;;;;;15.30;5.80;;;6.50;99.90;;;;;;5066024;28;20428;-64
2022/11/18 01:24:31;;;;;;;16.02;7.03;;;6.50;99.90;;;;;;5065327;28;20124;-64
2022/11/18 01:26:57;;;;;;;14.23;6.70;;;6.50;99.90;;;;;;5063386;28;20679;-64
2022/11/18 01:29:23;;;;;;;12.10;4.90;;;6.50;99.90;;;;;;5063315;28;20329;-64
2022/11/18 01:31:49;;;;;;;;;;;6.50;99.90;;;;;;5064412;28;20068;-64
2022/11/18 01:34:14;;;;;;;16.20;6.75;;;6.50;99.90;;;;;;5070003;28;19974;-64
2022/11/18 01:36:40;;;;;;;;;;;6.60;99.90;;;;;;5068334;28;20045;-64
2022/11/18 01:39:06;;;;;;;12.00;3.40;;;6.50;99.90;;;;;;5065676;28;20643;-64
2022/11/18 01:41:31;;;;;;;;;;;6.50;99.90;;;;;;5064765;28;20037;-64
2022/11/18 01:44:03;;;;;;;7.95;4.68;;;6.50;99.90;;;;;;5063233;28;19923;-63
2022/11/18 01:46:32;;;;;;;11.90;4.85;;;6.50;99.90;;;;;;5063075;28;20084;-64
2022/11/18 01:49:05;;;;;;;15.40;6.22;;;6.50;99.90;;;;;;5064254;28;20069;-64
2022/11/18 01:51:45;;;;;;;10.90;3.95;;;6.40;99.90;;;;;;5065262;28;20048;-63
2022/11/18 01:54:18;;;;;;;10.27;3.75;;;6.50;99.90;;;;;;5064512;28;20120;-64
2022/11/18 01:56:49;;;;;;;6.65;3.47;;;6.50;99.90;;;;;;5063552;28;20605;-65
2022/11/18 01:59:19;;;;;;;8.25;3.33;;;6.50;99.90;;;;;;5064383;28;20043;-64
2022/11/18 02:01:45;;;;;;;9.98;3.80;;;6.50;99.90;;;;;;5065803;28;20559;-64
2022/11/18 02:04:13;;;;;;;5.78;3.47;;;6.40;99.90;;;;;;5064539;28;20634;-64
2022/11/18 02:06:39;;;;;;;10.68;2.75;;;6.40;99.90;;;;;;5062919;28;20033;-64
2022/11/18 02:09:05;;;;;;;6.22;2.58;;;6.40;99.90;;;;;;5072552;28;20047;-65
2022/11/18 02:11:49;;;;;;;6.13;3.10;;;6.40;99.90;;;;;;5065753;28;20547;-65
2022/11/18 02:14:18;;;;;;;5.97;1.67;;;6.40;99.90;;;;;;5063807;28;20084;-63
2022/11/18 02:17:05;;;;;;;6.80;1.38;;;6.40;99.90;;;;;;5063150;28;20121;-64
2022/11/18 02:19:45;;;;;;;2.55;1.13;;;6.30;99.90;;;;;;5058611;28;20072;-64
2022/11/18 02:22:26;;;;;;;4.53;1.33;;;6.30;99.90;;;;;;5065931;28;20154;-64
2022/11/18 02:25:30;;;;;;;1.67;0.93;;;6.30;99.90;;;;;;5059900;28;20042;-63
2022/11/18 02:28:21;;;;;;;1.60;0.80;;;6.30;99.90;;;;;;5061495;28;20064;-64
2022/11/18 02:30:59;;;;;;;1.15;0.70;;;6.30;99.90;;;;;;5060123;28;20047;-64
2022/11/18 02:33:34;;;;;;;1.65;0.68;;;6.20;99.90;;;;;;5059185;28;20048;-64
2022/11/18 02:36:06;;;;;;;3.13;0.70;;;6.20;99.90;;;;;;5067825;28;20070;-65
2022/11/18 02:38:41;;;;;;;5.63;0.90;;;6.30;99.90;;;;;;5077938;28;20036;-63
2022/11/18 02:41:09;;;;;;;2.42;1.05;;;6.30;99.90;;;;;;5063479;28;20444;-64
2022/11/18 02:43:40;;;;;;;2.47;0.80;;;6.20;99.90;;;;;;5068106;28;20078;-65
2022/11/18 02:46:09;;;;;;;3.08;0.80;;;6.30;99.90;;;;;;5067836;28;20064;-65
2022/11/18 02:48:40;;;;;;;1.98;0.70;;;6.30;99.90;;;;;;5066981;28;20041;-64
2022/11/18 02:51:08;;;;;;;3.05;0.80;;;6.20;99.90;;;;;;5069106;28;20044;-65
2022/11/18 02:53:36;;;;;;;2.67;0.73;;;6.20;99.90;;;;;;5064125;28;20047;-65
2022/11/18 02:56:03;;;;;;;4.38;0.85;;;6.20;99.90;;;;;;5060185;28;20047;-64
2022/11/18 02:58:29;;;;;;;2.15;0.50;;;6.20;99.90;;;;;;5061890;28;20041;-64
2022/11/18 03:00:57;;;;;;;7.55;0.80;;;6.20;99.90;;;;;;5062473;28;20029;-65
2022/11/18 03:03:31;;;;;;;1.60;0.70;;;6.20;99.90;;;;;;5062583;28;20040;-64
2022/11/18 03:06:14;;;;;;;1.00;0.57;;;6.30;99.90;;;;;;5063006;28;20105;-63
2022/11/18 03:08:47;;;;;;;1.70;0.45;;;6.30;99.90;;;;;;5070374;28;20040;-65
2022/11/18 03:11:20;;;;;;;1.40;0.55;;;6.30;99.90;;;;;;5067261;28;20056;-63
2022/11/18 03:14:07;;;;;;;5.88;0.60;;;6.30;99.90;;;;;;5063846;28;20041;-64
2022/11/18 03:16:36;;;;;;;;;;;6.30;99.90;;;;;;5062982;28;20050;-64
2022/11/18 03:19:33;;;;;;;0.90;0.30;;;6.40;99.90;;;;;;5061381;28;19917;-64
2022/11/18 03:22:18;;;;;;;0.20;0.20;;;6.40;99.90;;;;;;5060738;28;20344;-64
2022/11/18 03:24:52;;;;;;;1.10;0.30;;;6.40;99.90;;;;;;5063863;28;20037;-64
2022/11/18 03:27:24;;;;;;;0.20;0.20;;;6.30;99.90;;;;;;5066257;28;20124;-65
2022/11/18 03:29:58;;;;;;;0.30;0.30;;;6.30;99.90;;;;;;5067101;28;20079;-64
2022/11/18 03:32:28;;;;;;;1.38;0.50;;;6.30;99.90;;;;;;5066227;28;20036;-65
2022/11/18 03:35:00;;;;;;;2.45;0.40;;;6.20;99.90;;;;;;5066868;28;20044;-64
2022/11/18 03:37:29;;;;;;;0.80;0.52;;;6.10;99.90;;;;;;5064966;28;20488;-64
2022/11/18 03:40:09;;;;;;;4.03;0.60;;;6.10;99.90;;;;;;5065828;28;20055;-64
2022/11/18 03:42:41;;;;;;;5.40;0.60;;;6.10;99.90;;;;;;5063583;28;20040;-64
2022/11/18 03:45:18;;;;;;;2.88;0.90;;;6.00;99.90;;;;;;5062570;28;20041;-64
2022/11/18 03:48:03;;;;;;;1.65;0.60;;;6.00;99.90;;;;;;5059306;28;20063;-65
2022/11/18 03:50:33;;;;;;;2.38;0.57;;;6.00;99.90;;;;;;5060348;28;20045;-63
2022/11/18 03:53:02;;;;;;;1.67;0.70;;;5.90;99.90;;;;;;5064512;28;20063;-63
2022/11/18 03:55:33;;;;;;;13.15;1.17;;;5.90;99.90;;;;;;5068164;28;20037;-64
2022/11/18 03:58:07;;;;;;;5.88;0.63;;;5.90;99.90;;;;;;5068843;28;20044;-64
2022/11/18 04:00:39;;;;;;;4.20;0.90;;;5.80;99.90;;;;;;5068430;28;20045;-63
2022/11/18 04:03:05;;;;;;;1.55;0.47;;;5.80;99.90;;;;;;5102334;28;20112;-63
2022/11/18 04:05:34;;;;;;;1.40;0.50;;;5.80;99.90;;;;;;5068852;28;20047;-63
2022/11/18 04:08:03;;;;;;;6.43;0.82;;;5.80;99.90;;;;;;5071716;28;20146;-63
2022/11/18 04:10:46;;;;;;;13.35;0.65;;;5.80;99.90;;;;;;5067448;28;20045;-64
2022/11/18 04:13:21;;;;;;;2.92;0.90;;;5.80;99.90;;;;;;5067183;28;20072;-63
2022/11/18 04:15:50;;;;;;;4.22;1.40;;;5.80;99.90;;;;;;5064582;28;20067;-64
2022/11/18 04:18:16;;;;;;;7.32;0.70;;;5.80;99.90;;;;;;5065952;28;20408;-64
2022/11/18 04:20:41;;;;;;;1.08;0.50;;;5.80;99.90;;;;;;5068955;28;20036;-65
2022/11/18 04:23:07;;;;;;;2.00;0.55;;;5.90;99.90;;;;;;5069573;28;20660;-65
2022/11/18 04:25:34;;;;;;;1.73;0.52;;;5.90;99.90;;;;;;5068142;28;20036;-65
2022/11/18 04:27:59;;;;;;;3.95;0.77;;;6.00;99.90;;;;;;5068109;28;20036;-64
2022/11/18 04:30:25;;;;;;;0.57;0.40;;;5.90;99.90;;;;;;5065875;28;20037;-65
2022/11/18 04:32:51;;;;;;;3.22;0.60;;;6.00;99.90;;;;;;5070725;28;20044;-65
2022/11/18 04:35:17;;;;;;;3.70;0.65;;;5.90;99.90;;;;;;5071798;28;20570;-65
2022/11/18 04:37:42;;;;;;;1.83;0.80;;;6.00;99.90;;;;;;5075509;28;20085;-65
2022/11/18 04:40:08;;;;;;;;;;;6.10;99.90;;;;;;5072318;28;20583;-64
2022/11/18 04:42:34;;;;;;;3.00;0.65;;;6.10;99.90;;;;;;5067439;28;19924;-64
2022/11/18 04:45:00;;;;;;;2.50;0.63;;;6.10;99.90;;;;;;5067635;28;20045;-63
2022/11/18 04:47:26;;;;;;;;;;;6.20;99.90;;;;;;5064836;28;20045;-64
2022/11/18 04:49:51;;;;;;;5.07;0.70;;;6.20;99.90;;;;;;5070565;28;19916;-64
2022/11/18 04:52:17;;;;;;;3.20;0.50;;;6.10;99.90;;;;;;5071407;28;20048;-64
2022/11/18 04:54:43;;;;;;;0.90;0.47;;;6.20;99.90;;;;;;5066049;28;20036;-64
2022/11/18 04:57:09;;;;;;;2.05;0.40;;;6.20;99.90;;;;;;5061034;28;20052;-65
2022/11/18 04:59:34;;;;;;;4.43;0.60;;;6.20;99.90;;;;;;5061185;28;20480;-64
2022/11/18 05:02:00;;;;;;;3.60;0.80;;;6.20;99.90;;;;;;5065482;28;20055;-64
2022/11/18 05:04:29;;;;;;;4.80;0.70;;;6.20;99.90;;;;;;5067450;28;20071;-65
2022/11/18 05:06:55;;;;;;;1.27;0.70;;;6.20;99.90;;;;;;5066351;28;20052;-64
2022/11/18 05:09:20;;;;;;;1.05;0.50;;;6.30;99.90;;;;;;5065457;28;20032;-63
2022/11/18 05:14:30;;;;;;;2.38;0.57;;;6.30;99.90;;;;;;5058893;28;20007;-64
2022/11/18 05:16:59;;;;;;;3.28;0.50;;;6.30;99.90;;;;;;5063601;28;20156;-64
2022/11/18 05:19:24;;;;;;;5.07;0.80;;;6.30;99.90;;;;;;5059631;28;20072;-65
2022/11/18 05:21:51;;;;;;;0.70;0.50;;;6.30;99.90;;;;;;5065541;28;20075;-65
2022/11/18 05:24:17;;;;;;;5.97;0.73;;;6.40;99.90;;;;;;5069033;28;20101;-63
2022/11/18 05:26:42;;;;;;;0.65;0.50;;;6.40;99.90;;;;;;5065369;28;20048;-65
2022/11/18 05:29:08;;;;;;;2.35;0.70;;;6.40;99.90;;;;;;5068588;28;20111;-64
2022/11/18 05:31:34;;;;;;;1.40;0.57;;;6.40;99.90;;;;;;5065578;28;20458;-64
2022/11/18 05:34:00;;;;;;;4.28;1.25;;;6.40;99.90;;;;;;5062185;28;20071;-64
2022/11/18 05:36:25;;;;;;;5.68;1.08;;;6.30;99.90;;;;;;5065656;28;20094;-63
2022/11/18 05:38:51;;;;;;;0.82;0.50;;;6.30;99.90;;;;;;5078218;28;20044;-61
2022/11/18 05:44:02;;;;;;;1.90;0.60;;;6.30;99.90;;;;;;5063826;28;20006;-62
2022/11/18 05:46:30;;;;;;;4.18;1.23;;;6.20;99.90;;;;;;5061701;28;20044;-63
2022/11/18 05:48:56;;;;;;;3.42;0.85;;;6.20;99.90;;;;;;5062209;28;20052;-62
2022/11/18 05:51:21;;;;;;;3.95;0.82;;;6.20;99.90;;;;;;5064394;28;20032;-61
2022/11/18 05:53:48;;;;;;;;;;;6.20;99.90;;;;;;5066051;28;20052;-63
2022/11/18 05:56:24;;;;;;;3.20;0.70;;;6.20;99.90;;;;;;5065568;28;20483;-62
2022/11/18 05:58:50;;;;;;;3.28;0.90;;;6.20;99.90;;;;;;5064623;28;20044;-61
2022/11/18 06:01:18;;;;;;;;;;;6.20;99.90;;;;;;5062511;28;20545;-61
2022/11/18 06:03:44;;;;;;;2.92;0.93;;;6.20;99.90;;;;;;5064193;28;19926;-61
2022/11/18 06:06:14;;;;;;;1.60;0.60;;;6.20;99.90;;;;;;5061740;28;20041;-58
2022/11/18 06:08:44;;;;;;;3.50;0.80;;;6.20;99.90;;;;;;5065032;28;20443;-63
2022/11/18 06:11:12;;;;;;;1.30;0.47;;;6.30;99.90;;;;;;5062696;28;20036;-62
2022/11/18 06:13:49;;;;;;;1.80;0.68;;;6.30;99.90;;;;;;5063900;28;20068;-62
2022/11/18 06:16:17;;;;;;;2.60;0.73;;;6.30;99.90;;;;;;5061069;28;20052;-62
2022/11/18 06:18:43;;;;;;;1.25;0.50;;;6.30;99.90;;;;;;5063480;28;20068;-62
2022/11/18 06:21:08;;;;;;;1.17;0.60;;;6.20;99.90;;;;;;5063979;28;20068;-61
2022/11/18 06:23:36;;;;;;;;;;;6.20;99.90;;;;;;5064207;28;20123;-62
2022/11/18 06:26:02;;;;;;;4.38;0.75;;;6.20;99.90;;;;;;5063522;28;20151;-62
2022/11/18 06:28:29;;;;;;;1.13;0.50;;;6.10;99.90;;;;;;5064107;28;20592;-63
2022/11/18 06:30:54;;;;;;;1.25;0.75;;;6.10;99.90;;;;;;5062314;28;20033;-62
2022/11/18 06:33:20;;;;;;;5.70;0.95;;;6.10;99.90;;;;;;5063109;28;20041;-63
2022/11/18 06:35:45;;;;;;;;;;;6.10;99.90;;;;;;5065108;28;20049;-62
2022/11/18 06:38:11;;;;;;;1.52;1.08;;;6.10;99.90;;;;;;5061969;28;19917;-63
2022/11/18 06:40:37;;;;;;;;;;;6.10;99.90;;;;;;5066239;28;20112;-65
2022/11/18 06:48:42;;;;;;;6.07;0.70;;;6.10;99.90;;;;;;5066389;28;20070;-63
2022/11/18 06:51:08;;;;;;;3.33;0.88;;;6.00;99.90;;;;;;5064045;28;20051;-62
2022/11/18 06:53:34;;;;;;;7.32;1.00;;;6.10;99.90;;;;;;5065251;28;20036;-64
2022/11/18 06:56:04;;;;;;;5.20;0.80;;;6.00;99.90;;;;;;5065090;28;20790;-63
2022/11/18 06:58:30;;;;;;;2.28;0.82;;;6.00;99.90;;;;;;5056342;28;20045;-62
2022/11/18 07:00:55;;;;;;;1.65;0.90;;;6.00;99.90;;;;;;5060359;28;20076;-61
2022/11/18 07:03:21;;;;;;;3.13;1.00;;;6.00;99.90;;;;;;5063441;28;20070;-62
2022/11/18 07:05:47;;;;;;;1.98;0.93;;;6.00;99.90;;;;;;5063786;28;20040;-62
2022/11/18 07:08:12;;;;;;;3.60;0.63;;;6.00;99.90;;;;;;5069140;28;20036;-62
2022/11/18 07:10:38;;;;;;;2.97;0.63;;;6.00;99.90;;;;;;5063729;28;20039;-64
2022/11/18 07:13:03;;;;;;;0.57;0.30;;;6.00;99.90;;;;;;5063860;28;20045;-64
2022/11/18 07:15:29;;;;;;;1.50;0.70;;;6.00;99.90;;;;;;5063635;28;20518;-63
2022/11/18 07:17:54;;;;;;;;;;;6.00;99.90;;;;;;5064675;28;20060;-61
2022/11/18 07:20:20;;;;;;;4.97;1.02;;;6.10;99.90;;;;;;5062015;28;20019;-64
2022/11/18 07:22:46;;;;;;;;;;;6.10;99.90;;;;;;5066082;28;20630;-63
2022/11/18 07:25:11;;;;;;;3.88;0.98;;;6.10;99.90;;;;;;5061335;28;19919;-64
2022/11/18 07:27:37;;;;;;;5.80;1.17;;;6.10;99.90;;;;;;5063723;28;20797;-62
2022/11/18 07:30:03;;;;;;;1.27;0.77;;;6.10;99.90;;;;;;5066709;28;20488;-63
2022/11/18 07:32:28;;;;;;;;;;;6.10;99.90;;;;;;5065687;28;20047;-63
2022/11/18 07:34:54;;;;;;;4.68;1.10;;;6.10;99.90;;;;;;5067301;28;19967;-63
2022/11/18 07:37:20;;;;;;;2.10;0.93;;;6.10;99.90;;;;;;5068662;28;20040;-61
2022/11/18 07:39:45;;;;;;;1.15;0.70;;;6.10;99.90;;;;;;5067229;28;20074;-64
2022/11/18 07:42:11;;;;;;;2.97;0.90;;;6.10;99.90;;;;;;5066100;28;20044;-63
2022/11/18 07:44:36;;;;;;;4.63;0.90;;;6.20;99.90;;;;;;5065493;28;20565;-63
2022/11/18 07:47:02;;;;;;;2.13;0.70;;;6.20;99.90;;;;;;5062054;28;20120;-63
2022/11/18 07:49:28;;;;;;;;;;;6.20;99.90;;;;;;5064991;28;20045;-64
2022/11/18 07:51:53;;;;;;;4.72;1.20;;;6.30;99.90;;;;;;5064657;28;20357;-62
2022/11/18 07:54:19;;;;;;;;;;;6.30;99.90;;;;;;5060150;28;20067;-65
2022/11/18 07:56:46;;;;;;;2.80;1.23;;;6.30;99.90;;;;;;5064685;28;19916;-63
2022/11/18 07:59:11;;;;;;;2.00;0.93;;;6.40;99.90;;;;;;5057502;28;20496;-62
2022/11/18 08:01:37;;;;;;;2.70;0.75;;;6.40;99.90;;;;;;5062628;28;20100;-64
2022/11/18 08:04:04;;;;;;;;;;;6.40;99.90;;;;;;5069369;28;20042;-64
2022/11/18 08:06:32;;;;;;;0.80;0.70;;;6.40;99.90;;;;;;5065018;28;19939;-64
2022/11/18 08:08:57;;;;;;;6.63;1.13;;;6.50;99.90;;;;;;5072748;28;20072;-64
2022/11/18 08:11:23;;;;;;;1.10;0.70;;;6.40;99.90;;;;;;5070277;28;20067;-64
2022/11/18 08:13:50;;;;;;;2.97;0.88;;;6.50;99.90;;;;;;5066615;28;20036;-63
2022/11/18 08:16:19;;;;;;;2.13;0.82;;;6.50;99.90;;;;;;5063835;28;20078;-63
2022/11/18 08:18:45;;;;;;;2.95;0.60;;;6.50;99.90;;;;;;5065802;28;20084;-62
2022/11/18 08:21:12;;;;;;;4.75;0.95;;;6.50;99.90;;;;;;5065536;28;20036;-63
2022/11/18 08:23:37;;;;;;;4.28;1.67;;;6.60;99.90;;;;;;5066024;28;20037;-64
2022/11/18 08:26:12;;;;;;;3.35;1.20;;;6.60;99.90;;;;;;5065836;28;20480;-63
2022/11/18 08:28:39;;;;;;;1.10;0.90;;;6.60;99.90;;;;;;5062059;28;20781;-64
2022/11/18 08:31:09;;;;;;;6.53;1.63;;;6.50;99.90;;;;;;5046394;28;20044;-63
2022/11/18 08:33:35;;;;;;;3.25;1.13;;;6.60;99.90;;;;;;5066134;28;20392;-62
2022/11/18 08:36:08;;;;;;;;;;;6.60;99.90;;;;;;5066021;28;20777;-63
2022/11/18 08:38:34;;;;;;;3.20;1.65;;;6.60;99.90;;;;;;5069506;28;20011;-63
2022/11/18 08:40:59;;;;;;;;;;;6.70;99.90;;;;;;5065482;28;20119;-63
2022/11/18 08:43:25;;;;;;;7.47;1.65;;;6.60;99.90;;;;;;5065379;28;19916;-63
2022/11/18 08:45:50;;;;;;;4.03;1.60;;;6.70;99.90;;;;;;5065423;28;20044;-63
2022/11/18 08:48:16;;;;;;;5.28;1.80;;;6.60;99.90;;;;;;5065868;28;20037;-63
2022/11/18 08:50:42;;;;;;;4.93;1.33;;;6.70;99.90;;;;;;5065647;28;20040;-63
2022/11/18 08:53:07;;;;;;;;;;;6.60;99.90;;;;;;5065494;28;20036;-62
2022/11/18 08:55:33;;;;;;;6.28;1.95;;;6.70;99.90;;;;;;5066219;28;19924;-63
2022/11/18 08:57:59;;;;;;;;;;;6.70;99.90;;;;;;5065764;28;20609;-63
2022/11/18 09:00:24;;;;;;;4.13;1.30;;;6.70;99.90;;;;;;5063152;28;19916;-63
2022/11/18 09:02:50;;;;;;;;;;;6.70;99.90;;;;;;5067290;28;20044;-63
2022/11/18 09:05:15;;;;;;;3.80;1.33;;;6.80;99.90;;;;;;5064100;28;19920;-62
2022/11/18 09:07:41;;;;;;;4.50;1.70;;;6.90;99.90;;;;;;5069097;28;20072;-63
2022/11/18 09:10:07;;;;;;;2.72;1.30;;;6.90;99.90;;;;;;5066693;28;20037;-63
2022/11/18 09:12:33;;;;;;;2.75;1.35;;;7.00;99.90;;;;;;5064668;28;20614;-63
2022/11/18 09:14:58;;;;;;;;;;;7.10;99.90;;;;;;5064012;28;20067;-63
2022/11/18 09:17:24;;;;;;;1.92;1.40;;;7.20;99.90;;;;;;5064210;28;19920;-63
2022/11/18 09:19:49;;;;;;;5.75;1.55;;;7.30;99.90;;;;;;5063927;28;20044;-62
2022/11/18 09:22:15;;;;;;;5.45;1.90;;;7.30;99.90;;;;;;5064755;28;20036;-62
2022/11/18 09:24:42;;;;;;;4.20;1.40;;;7.40;99.90;;;;;;5058985;28;20421;-62
2022/11/18 09:27:08;;;;;;;3.80;1.65;;;7.40;99.90;;;;;;5062285;28;20472;-62
2022/11/18 09:29:34;;;;;;;4.03;1.52;;;7.50;99.90;;;;;;5062879;28;20075;-64
2022/11/18 09:32:00;;;;;;;;;;;7.50;99.90;;;;;;5064331;28;20060;-63
2022/11/18 09:34:27;;;;;;;3.72;2.05;;;7.50;99.90;;;;;;5064870;28;19927;-63
2022/11/18 09:36:55;;;;;;;4.57;2.10;;;7.50;99.90;;;;;;5044883;28;20101;-63
2022/11/18 09:39:22;;;;;;;4.53;2.10;;;7.50;99.90;;;;;;5069838;28;20039;-63
2022/11/18 09:42:01;;;;;;;4.20;2.42;;;7.60;99.90;;;;;;5064218;28;20064;-63
2022/11/18 09:45:09;;;;;;;6.13;1.63;;;7.50;99.90;;;;;;5056741;28;20063;-62
2022/11/18 09:47:34;;;;;;;;;;;7.50;99.90;;;;;;5061780;28;20052;-63
2022/11/18 09:50:30;;;;;;;4.60;1.27;;;7.60;99.90;;;;;;5058887;28;20447;-63
2022/11/18 09:53:21;;;;;;;3.60;1.35;;;7.70;99.90;;;;;;5053606;28;20111;-63
2022/11/18 09:55:48;;;;;;;3.92;1.23;;;7.70;99.90;;;;;;5056909;28;20578;-63
2022/11/18 09:58:33;;;;;;;6.03;0.90;;;7.80;99.90;;;;;;5060442;28;20120;-63
2022/11/18 10:01:00;;;;;;;0.95;0.60;;;7.90;99.90;;;;;;5062064;28;20041;-63
2022/11/18 10:03:31;;;;;;;4.57;0.52;;;7.90;99.90;;;;;;5063816;28;20125;-63
2022/11/18 10:06:22;;;;;;;3.65;0.80;;;7.90;99.90;;;;;;5063378;28;20564;-64
2022/11/18 10:09:05;;;;;;;1.05;0.50;;;8.00;99.90;;;;;;5068689;28;20037;-63
2022/11/18 10:11:56;;;;;;;2.55;0.52;;;8.00;99.90;;;;;;5058017;28;20048;-63
2022/11/18 10:14:39;;;;;;;3.13;0.63;;;7.90;99.90;;;;;;5024876;28;20040;-64
2022/11/18 10:17:34;;;;;;;0.68;0.47;;;7.90;99.90;;;;;;5063073;28;20059;-63
2022/11/18 10:20:21;;;;;;;6.10;0.90;;;8.00;99.90;;;;;;5060553;28;20081;-63
2022/11/18 10:22:51;;;;;;;3.00;0.43;;;8.00;99.90;;;;;;5060920;28;20419;-63
2022/11/18 10:25:17;;;;;;;1.25;0.40;;;8.10;99.90;;;;;;5063728;28;20127;-63
2022/11/18 10:27:45;;;;;;;3.03;0.60;;;8.10;99.90;;;;;;5062990;28;20044;-63
2022/11/18 10:30:18;;;;;;;2.30;0.68;;;8.10;99.90;;;;;;5065327;28;20093;-62
2022/11/18 10:32:53;;;;;;;0.80;0.57;;;8.10;99.90;;;;;;5059073;28;20056;-63
2022/11/18 10:35:34;;;;;;;7.10;1.85;;;8.20;99.90;;;;;;5061815;28;20047;-63
2022/11/18 10:38:03;;;;;;;1.40;0.60;;;8.20;99.90;;;;;;5062200;28;20048;-62
2022/11/18 10:40:31;;;;;;;0.77;0.40;;;8.20;99.90;;;;;;5063608;28;20047;-63
2022/11/18 10:42:57;;;;;;;1.10;0.50;;;8.20;99.90;;;;;;5064898;28;20059;-62
2022/11/18 10:45:23;;;;;;;;;;;8.30;99.90;;;;;;5065107;28;20040;-63
2022/11/18 10:48:08;;;;;;;4.23;0.57;;;8.30;99.90;;;;;;5063193;28;20011;-63
2022/11/18 10:50:49;;;;;;;3.88;0.57;;;8.40;99.90;;;;;;5060151;28;20304;-63
2022/11/18 10:53:35;;;;;;;6.53;0.38;;;8.50;99.90;;;;;;5060176;28;20086;-62
2022/11/18 10:56:07;;;;;;;1.42;0.30;;;8.50;99.90;;;;;;5063285;28;20106;-64
2022/11/18 10:58:41;;;;;;;0.65;0.40;;;8.60;99.90;;;;;;5062351;28;20075;-63
2022/11/18 11:01:19;;;;;;;1.02;0.47;;;8.60;99.90;;;;;;5060398;28;20052;-63
2022/11/18 11:04:21;;;;;;;1.55;0.40;;;8.60;99.90;;;;;;5061606;28;20044;-63
2022/11/18 11:06:47;;;;;;;1.20;0.40;;;8.80;99.90;;;;;;5061331;28;20123;-62
2022/11/18 11:09:12;;;;;;;;;;;8.80;99.90;;;;;;5070497;28;20059;-64
2022/11/18 11:11:42;;;;;;;1.48;0.73;;;8.80;99.90;;;;;;5064614;28;19970;-62
2022/11/18 11:14:42;;;;;;;2.70;0.80;;;8.70;99.90;;;;;;5066143;28;20044;-62
2022/11/18 11:17:17;;;;;;;2.55;0.80;;;8.70;99.90;;;;;;5062305;28;20048;-64
2022/11/18 11:19:51;;;;;;;2.33;0.63;;;8.80;99.90;;;;;;5061028;28;20048;-62
2022/11/18 11:22:17;;;;;;;2.45;0.75;;;8.80;99.90;;;;;;5057906;28;20052;-63
2022/11/18 11:24:44;;;;;;;14.10;6.97;;;8.80;99.90;;;;;;5059519;28;20044;-63
2022/11/18 11:27:31;;;;;;;8.75;4.55;;;8.80;99.90;;;;;;5042494;28;20427;-63
2022/11/18 11:30:16;;;;;;;6.25;1.70;;;8.80;99.90;;;;;;5061119;28;20044;-62
2022/11/18 11:33:10;;;;;;;3.80;0.85;;;8.80;99.90;;;;;;5058642;28;20060;-65
2022/11/18 11:35:49;;;;;;;2.40;0.70;;;8.90;99.90;;;;;;5057652;28;20033;-61
2022/11/18 11:38:48;;;;;;;1.00;0.60;;;8.90;99.90;;;;;;5064888;28;20484;-63
2022/11/18 11:41:24;;;;;;;1.63;0.60;;;8.90;99.90;;;;;;5063666;28;20762;-63
2022/11/18 11:44:17;;;;;;;1.17;0.50;;;9.00;99.90;;;;;;5063325;28;20131;-63
2022/11/18 11:50:17;;;;;;;0.68;0.43;;;8.90;99.90;;;;;;5057656;28;20704;-64
2022/11/18 11:53:19;;;;;;;3.30;0.73;;;9.00;99.90;;;;;;5057274;28;20524;-63
2022/11/18 11:55:54;;;;;;;2.38;0.70;;;9.00;99.90;;;;;;5056385;28;20094;-63
2022/11/18 11:58:37;;;;;;;1.00;0.65;;;9.00;99.90;;;;;;5057608;28;20036;-63
2022/11/18 12:01:26;;;;;;;3.28;1.02;;;9.00;99.90;;;;;;5051066;28;20077;-62
2022/11/18 12:04:20;;;;;;;2.72;0.73;;;8.90;99.90;;;;;;5062270;28;20037;-63
2022/11/18 12:06:51;;;;;;;1.60;0.60;;;8.90;99.90;;;;;;5042684;28;20063;-62
2022/11/18 12:09:38;;;;;;;1.70;0.63;;;8.80;99.90;;;;;;5066985;28;20504;-63
2022/11/18 12:12:33;;;;;;;1.10;0.70;;;8.70;99.90;;;;;;5062817;28;20041;-64
2022/11/18 12:15:12;;;;;;;1.13;0.50;;;8.70;99.90;;;;;;5064426;28;20032;-63
2022/11/18 12:18:04;;;;;;;3.90;0.70;;;8.70;99.90;;;;;;5065363;28;20048;-63
2022/11/18 12:20:43;;;;;;;2.22;0.90;;;8.70;99.90;;;;;;5064208;28;20050;-64
2022/11/18 12:23:11;;;;;;;2.58;0.55;;;8.70;99.90;;;;;;5066014;28;20127;-63
2022/11/18 12:25:50;;;;;;;2.10;0.60;;;8.70;99.90;;;;;;5065222;28;20792;-63
2022/11/18 12:28:43;;;;;;;0.77;0.40;;;8.70;99.90;;;;;;5064004;28;20043;-64
2022/11/18 12:31:18;;;;;;;0.88;0.45;;;8.70;99.90;;;;;;5057809;28;20114;-63
2022/11/18 12:34:01;;;;;;;2.40;0.80;;;8.70;99.90;;;;;;5055727;28;20119;-68
2022/11/18 12:36:37;;;;;;;1.38;0.68;;;8.60;99.90;;;;;;5060836;28;20036;-69
2022/11/18 12:39:24;;;;;;;2.72;1.35;;;8.50;99.90;;;;;;5066254;28;20079;-69
2022/11/18 12:44:39;;;;;;;1.65;0.82;;;8.40;99.90;;;;;;5058754;28;20044;-70
2022/11/18 12:47:07;;;;;;;1.60;0.80;;;8.50;99.90;;;;;;5062450;28;20044;-69
2022/11/18 12:49:33;;;;;;;3.72;1.02;;;8.50;99.90;;;;;;5064647;28;20037;-72
2022/11/18 12:51:59;;;;;;;;;;;8.50;99.90;;;;;;5064699;28;20044;-70
2022/11/18 12:54:29;;;;;;;5.00;1.42;;;8.50;99.90;;;;;;5064954;28;20011;-70
2022/11/18 12:57:01;;;;;;;2.90;1.17;;;8.50;99.90;;;;;;5057439;28;20049;-71
2022/11/18 12:59:33;;;;;;;2.75;1.70;;;8.50;99.90;;;;;;5049935;28;20044;-71
2022/11/18 13:02:10;;;;;;;4.30;1.90;;;8.50;99.90;;;;;;5063338;28;20040;-71
2022/11/18 13:04:36;;;;;;;3.85;1.50;;;8.40;99.90;;;;;;5063201;28;20127;-70
2022/11/18 13:07:04;;;;;;;3.15;1.67;;;8.50;99.90;;;;;;5061794;28;20036;-71
2022/11/18 13:09:33;;;;;;;7.00;1.55;;;8.50;99.90;;;;;;5063762;28;20037;-71
2022/11/18 13:12:03;;;;;;;4.30;1.77;;;8.60;99.90;;;;;;5063440;28;20032;-72
2022/11/18 13:20:34;;;;;;;3.95;1.85;;;8.60;99.90;;;;;;5064099;28;20044;-68
2022/11/18 13:26:04;;;;;;;2.90;1.85;;;8.50;99.90;;;;;;5060703;28;20045;-71
2022/11/18 13:28:58;;;;;;;5.28;2.10;;;8.50;99.90;;;;;;5051350;28;20072;-72
2022/11/18 13:31:51;;;;;;;3.03;2.10;;;8.50;99.90;;;;;;5060910;28;20235;-70
2022/11/18 13:34:21;;;;;;;7.22;2.40;;;8.50;99.90;;;;;;5064553;28;20036;-69
2022/11/18 13:36:48;;;;;;;9.25;2.58;;;8.50;99.90;;;;;;5062699;28;20047;-70
2022/11/18 13:39:22;;;;;;;4.00;2.88;;;8.50;99.90;;;;;;5065338;28;20089;-71
2022/11/18 13:42:28;;;;;;;5.47;2.72;;;8.50;99.90;;;;;;5060337;28;20131;-72
2022/11/18 13:44:58;;;;;;;4.00;2.55;;;8.50;99.90;;;;;;5012794;28;20097;-71
2022/11/18 13:47:24;;;;;;;6.68;4.03;;;8.50;99.90;;;;;;5020919;28;20048;-73
2022/11/18 13:50:05;;;;;;;;;;;8.50;99.90;;;;;;5047422;28;20152;-72
2022/11/18 13:52:39;;;;;;;4.70;2.40;;;8.40;99.90;;;;;;5062746;28;20391;-69
2022/11/18 13:55:15;;;;;;;5.88;2.90;;;8.40;99.90;;;;;;5063201;28;20103;-70
2022/11/18 13:57:44;;;;;;;5.63;3.33;;;8.40;99.90;;;;;;5061630;28;20060;-70